sensor_id;sensor_type;location;lat;lon;timestamp;pressure;altitude;pressure_sealevel;temperature;humidity
21520;BME280;10921;53.614;9.882;2023-03-04T00:01:49;101857.81;;;8.15;73.35
21520;BME280;10921;53.614;9.882;2023-03-04T00:04:16;101853.63;;;8.10;73.39
21520;BME280;10921;53.614;9.882;2023-03-04T00:06:43;101853.34;;;8.15;73.18
21520;BME280;10921;53.614;9.882;2023-03-04T00:09:09;101847.03;;;8.03;73.24
21520;BME280;10921;53.614;9.882;2023-03-04T00:11:36;101853.25;;;8.17;73.19
21520;BME280;10921;53.614;9.882;2023-03-04T00:14:02;101862.94;;;8.18;73.17
21520;BME280;10921;53.614;9.882;2023-03-04T00:16:29;101863.69;;;8.20;72.99
21520;BME280;10921;53.614;9.882;2023-03-04T00:18:56;101835.34;;;8.06;72.78
21520;BME280;10921;53.614;9.882;2023-03-04T00:21:23;101855.50;;;8.23;73.06
21520;BME280;10921;53.614;9.882;2023-03-04T00:23:49;101863.50;;;8.23;72.64
21520;BME280;10921;53.614;9.882;2023-03-04T00:26:16;101854.44;;;8.25;72.61
21520;BME280;10921;53.614;9.882;2023-03-04T00:28:43;101863.16;;;8.27;72.67
21520;BME280;10921;53.614;9.882;2023-03-04T00:31:10;101857.94;;;8.26;72.84
21520;BME280;10921;53.614;9.882;2023-03-04T00:33:36;101846.69;;;8.22;72.57
21520;BME280;10921;53.614;9.882;2023-03-04T00:36:03;101829.41;;;8.15;72.21
21520;BME280;10921;53.614;9.882;2023-03-04T00:38:30;101845.41;;;8.28;72.26
21520;BME280;10921;53.614;9.882;2023-03-04T00:40:56;101849.97;;;8.26;72.22
21520;BME280;10921;53.614;9.882;2023-03-04T00:43:23;101849.88;;;8.27;72.79
21520;BME280;10921;53.614;9.882;2023-03-04T00:45:49;101853.38;;;8.28;72.51
21520;BME280;10921;53.614;9.882;2023-03-04T00:48:16;101837.53;;;8.26;72.43
21520;BME280;10921;53.614;9.882;2023-03-04T00:50:43;101832.34;;;8.25;72.35
21520;BME280;10921;53.614;9.882;2023-03-04T00:53:10;101833.16;;;8.25;72.22
21520;BME280;10921;53.614;9.882;2023-03-04T00:55:36;101828.59;;;8.27;72.17
21520;BME280;10921;53.614;9.882;2023-03-04T00:58:03;101818.47;;;8.20;72.28
21520;BME280;10921;53.614;9.882;2023-03-04T01:00:29;101832.00;;;8.29;72.17
21520;BME280;10921;53.614;9.882;2023-03-04T01:02:55;101831.34;;;8.26;72.25
21520;BME280;10921;53.614;9.882;2023-03-04T01:05:22;101825.66;;;8.32;72.55
21520;BME280;10921;53.614;9.882;2023-03-04T01:07:48;101836.19;;;8.33;72.53
21520;BME280;10921;53.614;9.882;2023-03-04T01:10:15;101816.91;;;8.30;72.84
21520;BME280;10921;53.614;9.882;2023-03-04T01:12:41;101822.06;;;8.33;72.73
21520;BME280;10921;53.614;9.882;2023-03-04T01:15:11;101793.03;;;8.16;72.70
21520;BME280;10921;53.614;9.882;2023-03-04T01:17:38;101811.31;;;8.34;72.49
21520;BME280;10921;53.614;9.882;2023-03-04T01:20:06;101797.16;;;8.34;72.91
21520;BME280;10921;53.614;9.882;2023-03-04T01:22:33;101800.69;;;8.34;72.70
21520;BME280;10921;53.614;9.882;2023-03-04T01:24:59;101797.28;;;8.32;72.76
21520;BME280;10921;53.614;9.882;2023-03-04T01:27:25;101783.88;;;8.34;72.68
21520;BME280;10921;53.614;9.882;2023-03-04T01:29:52;101783.13;;;8.32;72.88
21520;BME280;10921;53.614;9.882;2023-03-04T01:32:19;101797.16;;;8.34;72.47
21520;BME280;10921;53.614;9.882;2023-03-04T01:34:45;101786.53;;;8.34;72.55
21520;BME280;10921;53.614;9.882;2023-03-04T01:37:12;101772.66;;;8.29;72.54
21520;BME280;10921;53.614;9.882;2023-03-04T01:39:41;101775.03;;;8.33;72.81
21520;BME280;10921;53.614;9.882;2023-03-04T01:42:17;101773.97;;;8.36;73.12
21520;BME280;10921;53.614;9.882;2023-03-04T01:44:45;101772.38;;;8.33;72.59
21520;BME280;10921;53.614;9.882;2023-03-04T01:47:12;101766.09;;;8.34;72.80
21520;BME280;10921;53.614;9.882;2023-03-04T01:49:39;101762.75;;;8.31;72.80
21520;BME280;10921;53.614;9.882;2023-03-04T01:52:11;101757.28;;;8.34;73.45
21520;BME280;10921;53.614;9.882;2023-03-04T01:54:39;101759.09;;;8.33;73.10
21520;BME280;10921;53.614;9.882;2023-03-04T01:57:15;101741.38;;;8.20;73.64
21520;BME280;10921;53.614;9.882;2023-03-04T01:59:42;101742.13;;;8.22;73.14
21520;BME280;10921;53.614;9.882;2023-03-04T02:02:08;101756.53;;;8.32;73.32
21520;BME280;10921;53.614;9.882;2023-03-04T02:04:35;101760.03;;;8.32;73.26
21520;BME280;10921;53.614;9.882;2023-03-04T02:07:02;101749.47;;;8.31;73.14
21520;BME280;10921;53.614;9.882;2023-03-04T02:09:30;101741.59;;;8.29;73.33
21520;BME280;10921;53.614;9.882;2023-03-04T02:11:57;101743.28;;;8.30;73.44
21520;BME280;10921;53.614;9.882;2023-03-04T02:14:24;101711.78;;;8.11;73.14
21520;BME280;10921;53.614;9.882;2023-03-04T02:16:51;101747.66;;;8.31;73.71
21520;BME280;10921;53.614;9.882;2023-03-04T02:19:35;101731.72;;;8.31;73.93
21520;BME280;10921;53.614;9.882;2023-03-04T02:22:04;101737.91;;;8.32;73.36
21520;BME280;10921;53.614;9.882;2023-03-04T02:24:42;101732.59;;;8.32;73.84
21520;BME280;10921;53.614;9.882;2023-03-04T02:27:11;101742.06;;;8.36;73.62
21520;BME280;10921;53.614;9.882;2023-03-04T02:33:23;101728.13;;;8.32;73.55
21520;BME280;10921;53.614;9.882;2023-03-04T02:35:50;101731.63;;;8.33;74.06
21520;BME280;10921;53.614;9.882;2023-03-04T02:38:16;101715.09;;;8.28;74.10
21520;BME280;10921;53.614;9.882;2023-03-04T02:40:46;101725.47;;;8.32;74.60
21520;BME280;10921;53.614;9.882;2023-03-04T02:43:13;101714.72;;;8.34;74.13
21520;BME280;10921;53.614;9.882;2023-03-04T02:45:43;101692.56;;;8.21;74.50
21520;BME280;10921;53.614;9.882;2023-03-04T02:48:11;101720.03;;;8.34;74.58
21520;BME280;10921;53.614;9.882;2023-03-04T02:50:46;101712.81;;;8.36;74.94
21520;BME280;10921;53.614;9.882;2023-03-04T02:53:13;101673.50;;;8.14;74.70
21520;BME280;10921;53.614;9.882;2023-03-04T02:55:40;101712.81;;;8.36;74.69
21520;BME280;10921;53.614;9.882;2023-03-04T02:58:09;101714.81;;;8.32;75.10
21520;BME280;10921;53.614;9.882;2023-03-04T03:00:36;101681.19;;;8.19;75.01
21520;BME280;10921;53.614;9.882;2023-03-04T03:03:04;101699.03;;;8.29;75.05
21520;BME280;10921;53.614;9.882;2023-03-04T03:05:32;101695.44;;;8.30;75.40
21520;BME280;10921;53.614;9.882;2023-03-04T03:07:59;101692.78;;;8.30;75.26
21520;BME280;10921;53.614;9.882;2023-03-04T03:10:26;101670.44;;;8.20;75.46
21520;BME280;10921;53.614;9.882;2023-03-04T03:12:52;101697.44;;;8.27;75.34
21520;BME280;10921;53.614;9.882;2023-03-04T03:15:19;101660.78;;;8.06;75.37
21520;BME280;10921;53.614;9.882;2023-03-04T03:17:45;101691.06;;;8.29;75.65
21520;BME280;10921;53.614;9.882;2023-03-04T03:20:12;101693.84;;;8.28;75.98
21520;BME280;10921;53.614;9.882;2023-03-04T03:22:39;101687.75;;;8.26;76.39
21520;BME280;10921;53.614;9.882;2023-03-04T03:25:06;101664.06;;;8.23;76.11
21520;BME280;10921;53.614;9.882;2023-03-04T03:27:33;101680.88;;;8.23;76.51
21520;BME280;10921;53.614;9.882;2023-03-04T03:30:00;101682.44;;;8.26;76.83
21520;BME280;10921;53.614;9.882;2023-03-04T03:32:26;101689.69;;;8.24;76.58
21520;BME280;10921;53.614;9.882;2023-03-04T03:34:53;101675.47;;;8.25;77.02
21520;BME280;10921;53.614;9.882;2023-03-04T03:37:19;101665.63;;;8.25;77.16
21520;BME280;10921;53.614;9.882;2023-03-04T03:39:46;101673.63;;;8.25;77.21
21520;BME280;10921;53.614;9.882;2023-03-04T03:42:12;101677.38;;;8.23;77.45
21520;BME280;10921;53.614;9.882;2023-03-04T03:44:38;101681.94;;;8.21;77.67
21520;BME280;10921;53.614;9.882;2023-03-04T03:47:05;101645.44;;;7.97;78.12
21520;BME280;10921;53.614;9.882;2023-03-04T03:49:31;101669.25;;;8.11;78.84
21520;BME280;10921;53.614;9.882;2023-03-04T03:51:58;101640.34;;;7.94;78.96
21520;BME280;10921;53.614;9.882;2023-03-04T03:54:24;101672.00;;;8.10;78.72
21520;BME280;10921;53.614;9.882;2023-03-04T03:56:51;101657.56;;;8.01;78.91
21520;BME280;10921;53.614;9.882;2023-03-04T03:59:17;101633.63;;;7.89;78.53
21520;BME280;10921;53.614;9.882;2023-03-04T04:01:43;101662.56;;;8.06;78.71
21520;BME280;10921;53.614;9.882;2023-03-04T04:04:10;101656.41;;;8.05;79.20
21520;BME280;10921;53.614;9.882;2023-03-04T04:06:36;101655.44;;;8.06;78.83
21520;BME280;10921;53.614;9.882;2023-03-04T04:09:03;101655.56;;;8.05;78.19
21520;BME280;10921;53.614;9.882;2023-03-04T04:11:29;101615.66;;;7.80;77.68
21520;BME280;10921;53.614;9.882;2023-03-04T04:13:56;101667.56;;;8.10;77.85
21520;BME280;10921;53.614;9.882;2023-03-04T04:16:22;101631.63;;;8.05;77.40
21520;BME280;10921;53.614;9.882;2023-03-04T04:18:48;101639.72;;;8.03;75.90
21520;BME280;10921;53.614;9.882;2023-03-04T04:21:15;101647.03;;;8.12;74.51
21520;BME280;10921;53.614;9.882;2023-03-04T04:23:41;101656.59;;;8.15;74.17
21520;BME280;10921;53.614;9.882;2023-03-04T04:26:08;101660.66;;;8.21;73.90
21520;BME280;10921;53.614;9.882;2023-03-04T04:28:34;101649.94;;;8.22;73.95
21520;BME280;10921;53.614;9.882;2023-03-04T04:31:00;101655.84;;;8.26;74.05
21520;BME280;10921;53.614;9.882;2023-03-04T04:33:27;101655.66;;;8.29;74.54
21520;BME280;10921;53.614;9.882;2023-03-04T04:35:53;101644.16;;;8.28;74.61
21520;BME280;10921;53.614;9.882;2023-03-04T04:38:20;101650.91;;;8.34;74.56
21520;BME280;10921;53.614;9.882;2023-03-04T04:40:46;101649.19;;;8.33;73.64
21520;BME280;10921;53.614;9.882;2023-03-04T04:43:13;101632.06;;;8.24;73.45
21520;BME280;10921;53.614;9.882;2023-03-04T04:45:40;101644.63;;;8.35;73.53
21520;BME280;10921;53.614;9.882;2023-03-04T04:48:06;101635.06;;;8.32;73.11
21520;BME280;10921;53.614;9.882;2023-03-04T04:50:34;101643.56;;;8.37;73.52
21520;BME280;10921;53.614;9.882;2023-03-04T04:53:00;101637.41;;;8.37;74.26
21520;BME280;10921;53.614;9.882;2023-03-04T04:55:26;101643.31;;;8.40;74.51
21520;BME280;10921;53.614;9.882;2023-03-04T04:57:53;101611.84;;;8.22;75.53
21520;BME280;10921;53.614;9.882;2023-03-04T05:00:20;101643.78;;;8.34;76.34
21520;BME280;10921;53.614;9.882;2023-03-04T05:02:46;101636.84;;;8.32;77.09
21520;BME280;10921;53.614;9.882;2023-03-04T05:05:12;101634.59;;;8.26;77.43
21520;BME280;10921;53.614;9.882;2023-03-04T05:07:39;101646.53;;;8.20;78.47
21520;BME280;10921;53.614;9.882;2023-03-04T05:10:06;101631.84;;;8.15;78.34
21520;BME280;10921;53.614;9.882;2023-03-04T05:12:32;101631.19;;;8.11;78.60
21520;BME280;10921;53.614;9.882;2023-03-04T05:14:59;101626.81;;;8.10;78.87
21520;BME280;10921;53.614;9.882;2023-03-04T05:17:25;101618.56;;;8.02;79.14
21520;BME280;10921;53.614;9.882;2023-03-04T05:19:51;101640.47;;;8.05;78.32
21520;BME280;10921;53.614;9.882;2023-03-04T05:22:18;101632.16;;;7.97;78.19
21520;BME280;10921;53.614;9.882;2023-03-04T05:24:44;101621.75;;;7.94;77.83
21520;BME280;10921;53.614;9.882;2023-03-04T05:27:11;101633.66;;;8.01;77.15
21520;BME280;10921;53.614;9.882;2023-03-04T05:29:37;101634.91;;;7.96;76.78
21520;BME280;10921;53.614;9.882;2023-03-04T05:32:04;101618.84;;;7.85;75.67
21520;BME280;10921;53.614;9.882;2023-03-04T05:34:30;101586.63;;;7.64;75.13
21520;BME280;10921;53.614;9.882;2023-03-04T05:36:56;101651.59;;;7.98;73.28
21520;BME280;10921;53.614;9.882;2023-03-04T05:39:23;101636.94;;;7.92;71.24
21520;BME280;10921;53.614;9.882;2023-03-04T05:41:49;101641.63;;;8.01;69.01
21520;BME280;10921;53.614;9.882;2023-03-04T05:44:16;101651.41;;;8.01;67.67
21520;BME280;10921;53.614;9.882;2023-03-04T05:46:42;101599.00;;;7.78;67.55
21520;BME280;10921;53.614;9.882;2023-03-04T05:49:08;101641.22;;;8.07;67.60
21520;BME280;10921;53.614;9.882;2023-03-04T05:51:35;101637.06;;;8.03;67.39
21520;BME280;10921;53.614;9.882;2023-03-04T05:54:01;101632.03;;;7.99;67.16
21520;BME280;10921;53.614;9.882;2023-03-04T05:56:28;101632.03;;;8.11;67.70
21520;BME280;10921;53.614;9.882;2023-03-04T05:58:56;101646.19;;;8.12;67.77
21520;BME280;10921;53.614;9.882;2023-03-04T06:01:24;101648.63;;;8.15;67.08
21520;BME280;10921;53.614;9.882;2023-03-04T06:03:51;101613.78;;;7.94;66.31
21520;BME280;10921;53.614;9.882;2023-03-04T06:06:17;101642.47;;;8.15;66.79
21520;BME280;10921;53.614;9.882;2023-03-04T06:08:44;101638.84;;;8.16;66.40
21520;BME280;10921;53.614;9.882;2023-03-04T06:11:10;101655.84;;;8.13;66.06
21520;BME280;10921;53.614;9.882;2023-03-04T06:13:36;101656.72;;;8.13;65.84
21520;BME280;10921;53.614;9.882;2023-03-04T06:16:03;101650.66;;;8.11;66.01
21520;BME280;10921;53.614;9.882;2023-03-04T06:18:30;101618.66;;;7.88;65.76
21520;BME280;10921;53.614;9.882;2023-03-04T06:20:58;101670.97;;;8.12;64.53
21520;BME280;10921;53.614;9.882;2023-03-04T06:23:26;101667.69;;;8.09;63.91
21520;BME280;10921;53.614;9.882;2023-03-04T06:25:54;101664.38;;;8.05;63.83
21520;BME280;10921;53.614;9.882;2023-03-04T06:28:21;101675.88;;;8.06;63.28
21520;BME280;10921;53.614;9.882;2023-03-04T06:30:51;101666.69;;;7.97;63.27
21520;BME280;10921;53.614;9.882;2023-03-04T06:33:18;101667.53;;;7.98;63.87
21520;BME280;10921;53.614;9.882;2023-03-04T06:35:44;101667.03;;;7.93;63.05
21520;BME280;10921;53.614;9.882;2023-03-04T06:38:10;101677.56;;;7.94;62.98
21520;BME280;10921;53.614;9.882;2023-03-04T06:40:37;101656.50;;;7.79;63.41
21520;BME280;10921;53.614;9.882;2023-03-04T06:43:03;101684.34;;;7.86;63.44
21520;BME280;10921;53.614;9.882;2023-03-04T06:45:30;101673.47;;;7.76;63.62
21520;BME280;10921;53.614;9.882;2023-03-04T06:47:56;101665.94;;;7.83;63.65
21520;BME280;10921;53.614;9.882;2023-03-04T06:50:23;101679.31;;;7.81;64.11
21520;BME280;10921;53.614;9.882;2023-03-04T06:52:49;101680.16;;;7.82;64.21
21520;BME280;10921;53.614;9.882;2023-03-04T06:55:16;101669.41;;;7.70;64.58
21520;BME280;10921;53.614;9.882;2023-03-04T06:57:42;101690.69;;;7.83;64.67
21520;BME280;10921;53.614;9.882;2023-03-04T07:00:09;101688.25;;;7.80;64.74
21520;BME280;10921;53.614;9.882;2023-03-04T07:02:35;101687.09;;;7.84;64.57
21520;BME280;10921;53.614;9.882;2023-03-04T07:05:02;101678.78;;;7.76;64.76
21520;BME280;10921;53.614;9.882;2023-03-04T07:07:28;101677.75;;;7.79;64.88
21520;BME280;10921;53.614;9.882;2023-03-04T07:09:55;101685.81;;;7.77;64.98
21520;BME280;10921;53.614;9.882;2023-03-04T07:12:21;101682.41;;;7.75;65.06
21520;BME280;10921;53.614;9.882;2023-03-04T07:14:48;101681.66;;;7.73;64.47
21520;BME280;10921;53.614;9.882;2023-03-04T07:17:14;101688.56;;;7.75;65.07
21520;BME280;10921;53.614;9.882;2023-03-04T07:19:40;101678.03;;;7.74;64.80
21520;BME280;10921;53.614;9.882;2023-03-04T07:22:07;101686.13;;;7.72;64.92
21520;BME280;10921;53.614;9.882;2023-03-04T07:24:33;101689.63;;;7.73;65.32
21520;BME280;10921;53.614;9.882;2023-03-04T07:27:00;101688.66;;;7.74;65.01
21520;BME280;10921;53.614;9.882;2023-03-04T07:29:26;101688.53;;;7.63;64.96
21520;BME280;10921;53.614;9.882;2023-03-04T07:31:52;101684.19;;;7.62;65.12
21520;BME280;10921;53.614;9.882;2023-03-04T07:34:19;101694.75;;;7.76;64.76
21520;BME280;10921;53.614;9.882;2023-03-04T07:36:46;101701.19;;;7.72;64.48
21520;BME280;10921;53.614;9.882;2023-03-04T07:39:12;101694.19;;;7.71;64.30
21520;BME280;10921;53.614;9.882;2023-03-04T07:41:39;101669.19;;;7.61;64.01
21520;BME280;10921;53.614;9.882;2023-03-04T07:44:08;101682.06;;;7.67;63.67
21520;BME280;10921;53.614;9.882;2023-03-04T07:46:38;101701.19;;;7.72;63.33
21520;BME280;10921;53.614;9.882;2023-03-04T07:49:05;101708.13;;;7.74;62.84
21520;BME280;10921;53.614;9.882;2023-03-04T07:51:31;101707.47;;;7.71;62.67
21520;BME280;10921;53.614;9.882;2023-03-04T07:53:59;101702.16;;;7.71;61.87
21520;BME280;10921;53.614;9.882;2023-03-04T07:56:28;101695.13;;;7.70;62.09
21520;BME280;10921;53.614;9.882;2023-03-04T07:58:56;101699.69;;;7.68;61.87
21520;BME280;10921;53.614;9.882;2023-03-04T08:01:31;101719.50;;;7.76;62.35
21520;BME280;10921;53.614;9.882;2023-03-04T08:03:58;101668.19;;;7.49;61.44
21520;BME280;10921;53.614;9.882;2023-03-04T08:06:25;101717.69;;;7.77;61.41
21520;BME280;10921;53.614;9.882;2023-03-04T08:08:57;101711.72;;;7.73;61.24
21520;BME280;10921;53.614;9.882;2023-03-04T08:11:24;101722.34;;;7.73;61.00
21520;BME280;10921;53.614;9.882;2023-03-04T08:13:51;101727.47;;;7.76;61.01
21520;BME280;10921;53.614;9.882;2023-03-04T08:16:20;101729.38;;;7.74;61.01
21520;BME280;10921;53.614;9.882;2023-03-04T08:18:50;101733.53;;;7.79;61.77
21520;BME280;10921;53.614;9.882;2023-03-04T08:21:19;101729.19;;;7.78;61.84
21520;BME280;10921;53.614;9.882;2023-03-04T08:23:46;101730.22;;;7.75;62.07
21520;BME280;10921;53.614;9.882;2023-03-04T08:28:47;101731.75;;;7.79;62.02
21520;BME280;10921;53.614;9.882;2023-03-04T08:31:15;101730.97;;;7.77;62.24
21520;BME280;10921;53.614;9.882;2023-03-04T08:33:42;101717.31;;;7.56;62.47
21520;BME280;10921;53.614;9.882;2023-03-04T08:36:09;101740.84;;;7.75;62.13
21520;BME280;10921;53.614;9.882;2023-03-04T08:38:36;101701.06;;;7.61;62.51
21520;BME280;10921;53.614;9.882;2023-03-04T08:41:03;101721.03;;;7.66;62.58
21520;BME280;10921;53.614;9.882;2023-03-04T08:43:29;101707.44;;;7.58;62.68
21520;BME280;10921;53.614;9.882;2023-03-04T08:45:56;101726.06;;;7.71;62.18
21520;BME280;10921;53.614;9.882;2023-03-04T08:48:23;101722.84;;;7.66;61.60
21520;BME280;10921;53.614;9.882;2023-03-04T08:50:50;101722.75;;;7.67;61.22
21520;BME280;10921;53.614;9.882;2023-03-04T08:53:18;101731.94;;;7.76;60.62
21520;BME280;10921;53.614;9.882;2023-03-04T08:55:45;101729.19;;;7.78;60.35
21520;BME280;10921;53.614;9.882;2023-03-04T08:58:13;101728.53;;;7.74;60.32
21520;BME280;10921;53.614;9.882;2023-03-04T09:00:42;101736.81;;;7.82;60.24
21520;BME280;10921;53.614;9.882;2023-03-04T09:03:12;101727.38;;;7.78;59.75
21520;BME280;10921;53.614;9.882;2023-03-04T09:05:39;101732.78;;;7.76;59.54
21520;BME280;10921;53.614;9.882;2023-03-04T09:08:06;101685.88;;;7.63;59.72
21520;BME280;10921;53.614;9.882;2023-03-04T09:10:33;101683.16;;;7.50;59.07
21520;BME280;10921;53.614;9.882;2023-03-04T09:12:59;101735.44;;;7.76;59.14
21520;BME280;10921;53.614;9.882;2023-03-04T09:15:27;101740.53;;;7.80;59.23
21520;BME280;10921;53.614;9.882;2023-03-04T09:17:53;101719.16;;;7.81;59.46
21520;BME280;10921;53.614;9.882;2023-03-04T09:20:20;101743.19;;;7.80;59.52
21520;BME280;10921;53.614;9.882;2023-03-04T09:22:48;101744.03;;;7.80;59.42
21520;BME280;10921;53.614;9.882;2023-03-04T09:25:14;101735.53;;;7.75;59.96
21520;BME280;10921;53.614;9.882;2023-03-04T09:27:41;101732.56;;;7.80;59.70
21520;BME280;10921;53.614;9.882;2023-03-04T09:30:08;101706.38;;;7.61;60.05
21520;BME280;10921;53.614;9.882;2023-03-04T09:32:34;101726.63;;;7.76;60.15
21520;BME280;10921;53.614;9.882;2023-03-04T09:35:01;101731.09;;;7.88;59.93
21520;BME280;10921;53.614;9.882;2023-03-04T09:37:27;101730.25;;;7.88;60.73
21520;BME280;10921;53.614;9.882;2023-03-04T09:39:53;101723.91;;;7.90;60.70
21520;BME280;10921;53.614;9.882;2023-03-04T09:42:35;101711.56;;;7.89;61.01
21520;BME280;10921;53.614;9.882;2023-03-04T09:45:05;101722.50;;;7.97;60.86
21520;BME280;10921;53.614;9.882;2023-03-04T09:47:34;101719.22;;;7.94;61.04
21520;BME280;10921;53.614;9.882;2023-03-04T09:50:06;101731.44;;;7.96;61.24
21520;BME280;10921;53.614;9.882;2023-03-04T09:55:22;101639.44;;;7.68;60.00
21520;BME280;10921;53.614;9.882;2023-03-04T10:00:40;101723.91;;;8.03;60.43
21520;BME280;10921;53.614;9.882;2023-03-04T10:06:00;101724.34;;;8.09;59.67
21520;BME280;10921;53.614;9.882;2023-03-04T10:08:51;101727.53;;;8.15;59.27
21520;BME280;10921;53.614;9.882;2023-03-04T10:11:26;101728.81;;;8.09;59.06
21520;BME280;10921;53.614;9.882;2023-03-04T10:14:02;101705.00;;;8.20;59.53
21520;BME280;10921;53.614;9.882;2023-03-04T10:16:42;101727.88;;;8.23;58.30
21520;BME280;10921;53.614;9.882;2023-03-04T10:21:47;101712.44;;;8.28;57.72
21520;BME280;10921;53.614;9.882;2023-03-04T10:24:17;101681.94;;;8.08;58.10
21520;BME280;10921;53.614;9.882;2023-03-04T10:26:46;101706.06;;;8.30;57.80
21520;BME280;10921;53.614;9.882;2023-03-04T10:29:17;101708.56;;;8.33;57.49
21520;BME280;10921;53.614;9.882;2023-03-04T10:31:44;101718.03;;;8.37;57.23
21520;BME280;10921;53.614;9.882;2023-03-04T10:34:12;101711.97;;;8.35;57.09
21520;BME280;10921;53.614;9.882;2023-03-04T10:37:00;101720.91;;;8.47;57.20
21520;BME280;10921;53.614;9.882;2023-03-04T10:39:30;101728.47;;;8.53;56.12
21520;BME280;10921;53.614;9.882;2023-03-04T10:42:03;101706.75;;;8.46;56.06
21520;BME280;10921;53.614;9.882;2023-03-04T10:44:32;101710.78;;;8.65;54.62
21520;BME280;10921;53.614;9.882;2023-03-04T10:47:00;101699.19;;;8.53;54.29
21520;BME280;10921;53.614;9.882;2023-03-04T10:49:29;101716.22;;;8.63;53.68
21520;BME280;10921;53.614;9.882;2023-03-04T10:52:14;101721.94;;;8.82;53.64
21520;BME280;10921;53.614;9.882;2023-03-04T10:54:49;101729.16;;;8.93;53.73
21520;BME280;10921;53.614;9.882;2023-03-04T10:57:19;101731.72;;;8.95;53.44
21520;BME280;10921;53.614;9.882;2023-03-04T10:59:54;101723.03;;;9.04;53.16
21520;BME280;10921;53.614;9.882;2023-03-04T11:05:06;101722.19;;;9.16;53.15
21520;BME280;10921;53.614;9.882;2023-03-04T11:07:35;101725.88;;;9.26;52.34
21520;BME280;10921;53.614;9.882;2023-03-04T11:10:30;101727.47;;;9.29;52.17
21520;BME280;10921;53.614;9.882;2023-03-04T11:16:00;101717.19;;;9.35;52.37
21520;BME280;10921;53.614;9.882;2023-03-04T11:18:52;101712.28;;;9.42;52.09
21520;BME280;10921;53.614;9.882;2023-03-04T11:21:21;101718.69;;;9.39;51.56
21520;BME280;10921;53.614;9.882;2023-03-04T11:26:34;101711.88;;;9.35;51.57
21520;BME280;10921;53.614;9.882;2023-03-04T11:34:40;101704.56;;;9.26;52.45
21520;BME280;10921;53.614;9.882;2023-03-04T11:40:33;101675.47;;;8.99;53.38
21520;BME280;10921;53.614;9.882;2023-03-04T11:43:10;101708.88;;;9.16;53.72
21520;BME280;10921;53.614;9.882;2023-03-04T11:48:45;101695.19;;;9.21;52.95
21520;BME280;10921;53.614;9.882;2023-03-04T11:51:34;101704.03;;;9.21;52.99
21520;BME280;10921;53.614;9.882;2023-03-04T11:54:31;101699.25;;;9.26;53.56
21520;BME280;10921;53.614;9.882;2023-03-04T11:57:06;101690.84;;;9.20;52.74
21520;BME280;10921;53.614;9.882;2023-03-04T12:02:21;101694.56;;;9.30;53.06
21520;BME280;10921;53.614;9.882;2023-03-04T12:05:04;101685.47;;;9.32;53.50
21520;BME280;10921;53.614;9.882;2023-03-04T12:07:52;101682.56;;;9.35;53.70
21520;BME280;10921;53.614;9.882;2023-03-04T12:10:59;101664.41;;;9.29;53.86
21520;BME280;10921;53.614;9.882;2023-03-04T12:13:37;101686.94;;;9.36;54.44
21520;BME280;10921;53.614;9.882;2023-03-04T12:30:29;101663.00;;;9.47;53.95
21520;BME280;10921;53.614;9.882;2023-03-04T12:33:29;101667.66;;;9.57;54.15
21520;BME280;10921;53.614;9.882;2023-03-04T12:39:32;101667.03;;;9.53;52.88
21520;BME280;10921;53.614;9.882;2023-03-04T12:45:00;101667.22;;;9.39;52.72
21520;BME280;10921;53.614;9.882;2023-03-04T12:48:01;101673.84;;;9.33;53.23
21520;BME280;10921;53.614;9.882;2023-03-04T12:50:48;101661.84;;;9.28;53.16
21520;BME280;10921;53.614;9.882;2023-03-04T12:53:55;101657.06;;;9.20;53.60
21520;BME280;10921;53.614;9.882;2023-03-04T12:56:36;101656.69;;;9.13;53.62
21520;BME280;10921;53.614;9.882;2023-03-04T12:59:03;101642.69;;;8.99;52.36
21520;BME280;10921;53.614;9.882;2023-03-04T13:01:42;101652.97;;;9.16;52.51
21520;BME280;10921;53.614;9.882;2023-03-04T13:04:28;101642.06;;;9.19;52.05
21520;BME280;10921;53.614;9.882;2023-03-04T13:07:13;101646.94;;;9.25;52.18
21520;BME280;10921;53.614;9.882;2023-03-04T13:09:50;101642.03;;;9.32;51.84
21520;BME280;10921;53.614;9.882;2023-03-04T13:12:21;101644.38;;;9.47;51.15
21520;BME280;10921;53.614;9.882;2023-03-04T13:22:46;101644.78;;;9.65;49.51
21520;BME280;10921;53.614;9.882;2023-03-04T13:25:41;101652.44;;;9.70;49.24
21520;BME280;10921;53.614;9.882;2023-03-04T13:43:43;101603.94;;;9.53;48.17
21520;BME280;10921;53.614;9.882;2023-03-04T13:51:26;101630.16;;;9.71;49.12
21520;BME280;10921;53.614;9.882;2023-03-04T13:56:33;101627.81;;;9.55;48.17
21520;BME280;10921;53.614;9.882;2023-03-04T14:01:47;101647.53;;;9.52;48.35
21520;BME280;10921;53.614;9.882;2023-03-04T14:04:27;101645.94;;;9.50;48.62
21520;BME280;10921;53.614;9.882;2023-03-04T14:06:56;101648.13;;;9.45;48.57
21520;BME280;10921;53.614;9.882;2023-03-04T14:09:26;101644.84;;;9.41;48.21
21520;BME280;10921;53.614;9.882;2023-03-04T14:11:55;101637.91;;;9.39;48.05
21520;BME280;10921;53.614;9.882;2023-03-04T14:14:28;101632.47;;;9.40;48.46
21520;BME280;10921;53.614;9.882;2023-03-04T14:17:03;101634.91;;;9.43;48.47
21520;BME280;10921;53.614;9.882;2023-03-04T14:19:35;101623.63;;;9.40;48.55
21520;BME280;10921;53.614;9.882;2023-03-04T14:22:28;101632.41;;;9.53;49.14
21520;BME280;10921;53.614;9.882;2023-03-04T14:25:23;101635.91;;;9.53;49.51
21520;BME280;10921;53.614;9.882;2023-03-04T14:28:08;101634.56;;;9.48;50.23
21520;BME280;10921;53.614;9.882;2023-03-04T14:30:37;101631.28;;;9.44;50.03
21520;BME280;10921;53.614;9.882;2023-03-04T14:33:15;101635.78;;;9.44;50.46
21520;BME280;10921;53.614;9.882;2023-03-04T14:35:52;101641.22;;;9.42;50.56
21520;BME280;10921;53.614;9.882;2023-03-04T14:38:29;101634.28;;;9.40;51.06
21520;BME280;10921;53.614;9.882;2023-03-04T14:41:02;101609.13;;;9.20;51.45
21520;BME280;10921;53.614;9.882;2023-03-04T14:43:35;101637.03;;;9.27;51.41
21520;BME280;10921;53.614;9.882;2023-03-04T14:46:07;101632.88;;;9.23;51.65
21520;BME280;10921;53.614;9.882;2023-03-04T14:48:37;101628.38;;;9.12;51.84